createdAt,value
2023-02-23T00:00:47.385Z,21.50
2023-02-23T00:03:15.868Z,22.35
2023-02-23T00:05:44.312Z,22.00
2023-02-23T00:08:12.496Z,21.75
2023-02-23T00:10:40.749Z,22.27
2023-02-23T00:13:11.060Z,22.98
2023-02-23T00:15:40.531Z,22.98
2023-02-23T00:18:10.024Z,23.48
2023-02-23T00:20:44.358Z,23.02
2023-02-23T00:23:12.587Z,20.77
2023-02-23T00:25:42.422Z,21.80
2023-02-23T00:28:12.624Z,24.20
2023-02-23T00:30:41.231Z,22.25
2023-02-23T00:33:09.825Z,22.45
2023-02-23T00:35:38.787Z,23.73
2023-02-23T00:38:06.972Z,23.17
2023-02-23T00:40:35.441Z,23.30
2023-02-23T00:43:04.520Z,23.55
2023-02-23T00:45:34.804Z,22.08
2023-02-23T00:48:03.808Z,22.83
2023-02-23T00:50:33.040Z,23.10
2023-02-23T00:53:01.770Z,22.52
2023-02-23T00:55:30.197Z,23.23
2023-02-23T00:57:59.428Z,22.13
2023-02-23T01:00:28.044Z,23.13
2023-02-23T01:02:57.765Z,22.60
2023-02-23T01:05:26.216Z,24.05
2023-02-23T01:07:54.544Z,22.50
2023-02-23T01:10:23.789Z,23.50
2023-02-23T01:12:53.767Z,22.23
2023-02-23T01:15:22.582Z,23.13
2023-02-23T01:17:50.937Z,23.42
2023-02-23T01:20:21.475Z,24.67
2023-02-23T01:22:52.394Z,24.00
2023-02-23T01:25:21.245Z,24.45
2023-02-23T01:27:49.522Z,23.88
2023-02-23T01:30:18.178Z,23.83
2023-02-23T01:32:46.416Z,25.20
2023-02-23T01:35:15.366Z,24.48
2023-02-23T01:37:46.395Z,24.33
2023-02-23T01:40:28.554Z,23.83
2023-02-23T01:42:59.375Z,24.42
2023-02-23T01:45:34.798Z,24.30
2023-02-23T01:48:08.362Z,23.90
2023-02-23T01:50:46.036Z,24.50
2023-02-23T01:53:17.248Z,24.48
2023-02-23T01:55:49.836Z,23.52
2023-02-23T01:58:20.671Z,24.13
2023-02-23T02:00:51.479Z,25.60
2023-02-23T02:03:27.807Z,26.10
2023-02-23T02:05:57.564Z,25.65
2023-02-23T02:08:30.215Z,23.45
2023-02-23T02:10:59.119Z,25.65
2023-02-23T02:13:32.299Z,27.20
2023-02-23T02:16:28.271Z,24.65
2023-02-23T02:19:31.129Z,24.10
2023-02-23T02:22:30.650Z,26.25
2023-02-23T02:25:34.325Z,25.70
2023-02-23T02:28:30.770Z,24.40
2023-02-23T02:31:36.912Z,25.52
2023-02-23T02:34:42.520Z,24.33
2023-02-23T02:37:39.582Z,24.30
2023-02-23T02:40:19.545Z,23.40
2023-02-23T02:43:08.864Z,25.45
2023-02-23T02:45:45.281Z,24.17
2023-02-23T02:48:25.874Z,25.27
2023-02-23T02:50:57.346Z,25.60
2023-02-23T02:53:36.896Z,23.58
2023-02-23T02:56:07.462Z,24.13
2023-02-23T02:58:37.129Z,24.10
2023-02-23T03:01:27.956Z,24.85
2023-02-23T03:04:13.435Z,24.75
2023-02-23T03:07:05.535Z,23.50
2023-02-23T03:10:00.555Z,24.95
2023-02-23T03:12:56.442Z,24.55
2023-02-23T03:15:55.668Z,24.52
2023-02-23T03:18:59.296Z,24.13
2023-02-23T03:21:52.315Z,23.48
2023-02-23T03:24:47.657Z,23.98
2023-02-23T03:27:44.936Z,23.30
2023-02-23T03:30:38.428Z,25.83
2023-02-23T03:33:35.248Z,24.58
2023-02-23T03:36:24.548Z,25.15
2023-02-23T03:39:17.945Z,25.27
2023-02-23T03:42:07.629Z,25.35
2023-02-23T03:44:58.457Z,24.73
2023-02-23T03:47:48.926Z,25.58
2023-02-23T03:50:39.838Z,23.65
2023-02-23T03:53:29.331Z,25.55
2023-02-23T03:56:18.512Z,24.67
2023-02-23T03:59:11.162Z,23.23
2023-02-23T04:01:58.509Z,23.60
2023-02-23T04:04:49.167Z,23.65
2023-02-23T04:07:37.425Z,25.23
2023-02-23T04:10:26.594Z,24.60
2023-02-23T04:13:16.507Z,23.35
2023-02-23T04:15:49.409Z,23.20
2023-02-23T04:18:24.640Z,22.65
2023-02-23T04:20:53.411Z,23.05
2023-02-23T04:23:24.449Z,24.60
2023-02-23T04:25:55.056Z,24.65
2023-02-23T04:28:25.055Z,26.65
2023-02-23T04:30:59.697Z,26.92
2023-02-23T04:33:30.309Z,26.38
2023-02-23T04:35:59.589Z,28.15
2023-02-23T04:38:28.688Z,27.58
2023-02-23T04:40:56.997Z,28.95
2023-02-23T04:43:25.508Z,29.75
2023-02-23T04:45:54.202Z,29.80
2023-02-23T04:48:25.192Z,30.15
2023-02-23T04:50:56.164Z,27.90
2023-02-23T04:53:25.502Z,29.27
2023-02-23T04:55:55.330Z,29.20
2023-02-23T04:58:23.888Z,29.88
2023-02-23T05:00:53.629Z,29.00
2023-02-23T05:03:22.311Z,29.48
2023-02-23T05:05:51.479Z,29.23
2023-02-23T05:08:22.338Z,30.55
2023-02-23T05:10:51.543Z,33.05
2023-02-23T05:13:20.684Z,31.00
2023-02-23T05:15:49.233Z,32.65
2023-02-23T05:18:18.346Z,32.45
2023-02-23T05:20:47.791Z,32.33
2023-02-23T05:23:15.992Z,33.40
2023-02-23T05:25:46.604Z,33.10
2023-02-23T05:28:14.834Z,32.47
2023-02-23T05:30:43.626Z,32.35
2023-02-23T05:33:15.447Z,32.03
2023-02-23T05:35:45.244Z,32.22
2023-02-23T05:38:13.639Z,33.83
2023-02-23T05:40:42.146Z,36.22
2023-02-23T05:43:11.957Z,36.40
2023-02-23T05:45:42.045Z,34.80
2023-02-23T05:48:13.016Z,34.67
2023-02-23T05:50:41.760Z,37.10
2023-02-23T05:53:13.159Z,34.72
2023-02-23T05:55:42.075Z,35.05
2023-02-23T05:58:12.108Z,34.10
2023-02-23T06:00:40.874Z,32.78
2023-02-23T06:03:09.709Z,34.50
2023-02-23T06:05:38.113Z,33.65
2023-02-23T06:08:06.565Z,34.17
2023-02-23T06:10:36.760Z,32.95
2023-02-23T06:13:08.126Z,32.90
2023-02-23T06:15:38.469Z,32.80
2023-02-23T06:18:09.189Z,31.95
2023-02-23T06:20:40.291Z,33.35
2023-02-23T06:23:09.406Z,32.58
2023-02-23T06:25:40.897Z,31.20
2023-02-23T06:28:11.501Z,30.17
2023-02-23T06:30:42.519Z,31.92
2023-02-23T06:33:16.319Z,32.20
2023-02-23T06:35:46.236Z,35.58
2023-02-23T06:38:15.381Z,38.03
2023-02-23T06:40:44.325Z,34.80
2023-02-23T06:43:13.226Z,34.75
2023-02-23T06:45:43.985Z,36.90
2023-02-23T06:48:12.715Z,35.95
2023-02-23T06:50:42.266Z,35.75
2023-02-23T06:53:10.925Z,37.20
2023-02-23T06:55:39.182Z,36.28
2023-02-23T06:58:08.252Z,36.53
2023-02-23T07:00:37.508Z,39.50
2023-02-23T07:03:07.497Z,37.03
2023-02-23T07:05:36.228Z,37.42
2023-02-23T07:08:05.507Z,37.40
2023-02-23T07:10:35.068Z,38.22
2023-02-23T07:13:03.533Z,36.05
2023-02-23T07:15:32.158Z,38.45
2023-02-23T07:18:00.606Z,35.38
2023-02-23T07:20:31.997Z,37.72
2023-02-23T07:23:02.227Z,35.08
2023-02-23T07:25:32.659Z,34.88
2023-02-23T07:28:01.116Z,33.30
2023-02-23T07:30:30.167Z,33.50
2023-02-23T07:32:58.439Z,33.38
2023-02-23T07:35:27.421Z,34.95
2023-02-23T07:37:58.781Z,32.83
2023-02-23T07:40:28.199Z,32.95
2023-02-23T07:42:57.527Z,30.52
2023-02-23T07:45:26.614Z,31.02
2023-02-23T07:47:54.786Z,32.35
2023-02-23T07:50:23.736Z,32.00
2023-02-23T07:52:52.320Z,32.10
2023-02-23T07:55:22.548Z,32.17
2023-02-23T07:57:50.854Z,31.00
2023-02-23T08:00:20.330Z,34.03
2023-02-23T08:02:48.563Z,31.38
2023-02-23T08:05:17.108Z,32.30
2023-02-23T08:07:45.756Z,30.70
2023-02-23T08:10:14.541Z,30.75
2023-02-23T08:12:44.617Z,30.50
2023-02-23T08:15:13.256Z,30.65
2023-02-23T08:17:42.156Z,29.75
2023-02-23T08:20:12.210Z,28.83
2023-02-23T08:22:49.397Z,27.83
2023-02-23T08:25:18.866Z,29.58
2023-02-23T08:27:51.999Z,28.23
2023-02-23T08:30:21.668Z,30.20
2023-02-23T08:32:50.723Z,26.00
2023-02-23T08:35:20.403Z,29.23
2023-02-23T08:37:48.758Z,29.90
2023-02-23T08:40:18.568Z,33.15
2023-02-23T08:42:52.091Z,32.72
2023-02-23T08:45:21.487Z,33.10
2023-02-23T08:47:49.892Z,32.85
2023-02-23T08:50:18.524Z,33.00
2023-02-23T08:52:46.766Z,32.35
2023-02-23T08:55:18.044Z,34.55
2023-02-23T08:57:46.588Z,33.65
2023-02-23T09:00:17.670Z,33.63
2023-02-23T09:02:48.130Z,34.45
2023-02-23T09:05:17.192Z,32.17
2023-02-23T09:07:46.424Z,33.67
2023-02-23T09:10:17.114Z,33.38
2023-02-23T09:12:45.498Z,32.97
2023-02-23T09:15:14.031Z,34.33
2023-02-23T09:17:45.349Z,33.13
2023-02-23T09:20:15.866Z,34.45
2023-02-23T09:22:48.744Z,32.55
2023-02-23T09:25:19.523Z,31.42
2023-02-23T09:27:47.792Z,30.88
2023-02-23T09:30:18.037Z,32.15
2023-02-23T09:32:47.790Z,32.92
2023-02-23T09:35:17.894Z,36.58
2023-02-23T09:37:47.464Z,35.97
2023-02-23T09:40:18.776Z,36.05
2023-02-23T09:42:55.079Z,36.35
2023-02-23T09:45:34.634Z,38.85
2023-02-23T09:48:13.570Z,37.80
2023-02-23T09:50:44.887Z,37.28
2023-02-23T09:53:25.879Z,36.95
2023-02-23T09:55:56.146Z,39.25
2023-02-23T09:58:27.235Z,38.17
2023-02-23T10:01:13.028Z,39.75
2023-02-23T10:03:51.647Z,37.25
2023-02-23T10:06:21.119Z,39.70
2023-02-23T10:09:03.628Z,38.55
2023-02-23T10:11:41.435Z,39.80
2023-02-23T10:14:36.242Z,40.20
2023-02-23T10:17:17.349Z,41.40
2023-02-23T10:19:54.677Z,40.10
2023-02-23T10:22:25.437Z,40.38
2023-02-23T10:24:58.394Z,38.60
2023-02-23T10:27:34.604Z,37.75
2023-02-23T10:30:04.901Z,38.70
2023-02-23T10:32:42.547Z,36.72
2023-02-23T10:35:15.418Z,36.88
2023-02-23T10:37:44.662Z,39.42
2023-02-23T10:40:17.885Z,36.42
2023-02-23T10:42:46.318Z,38.58
2023-02-23T10:45:18.740Z,39.45
2023-02-23T10:47:48.040Z,38.17
2023-02-23T10:50:18.278Z,40.85
2023-02-23T10:52:49.393Z,41.20
2023-02-23T10:55:27.439Z,39.72
2023-02-23T10:58:16.783Z,39.17
2023-02-23T11:01:04.124Z,37.80
2023-02-23T11:03:37.191Z,40.47
2023-02-23T11:06:08.538Z,38.47
2023-02-23T11:08:39.703Z,38.05
2023-02-23T11:11:19.770Z,38.42
2023-02-23T11:13:50.202Z,38.78
2023-02-23T11:16:21.361Z,36.45
2023-02-23T11:18:55.762Z,34.13
2023-02-23T11:21:29.581Z,35.67
2023-02-23T11:24:00.671Z,34.83
2023-02-23T11:26:33.986Z,34.95
2023-02-23T11:29:11.063Z,34.72
2023-02-23T11:31:40.739Z,33.20
2023-02-23T11:34:20.831Z,33.72
2023-02-23T11:37:01.796Z,35.08
2023-02-23T11:39:30.260Z,33.97
2023-02-23T11:42:19.231Z,35.80
2023-02-23T11:44:53.242Z,37.03
2023-02-23T11:47:23.909Z,36.40
2023-02-23T11:49:52.872Z,38.85
2023-02-23T11:52:25.903Z,37.03
2023-02-23T11:54:58.318Z,37.60
2023-02-23T11:57:30.023Z,38.83
2023-02-23T12:00:00.291Z,37.65
2023-02-23T12:02:30.865Z,38.17
2023-02-23T12:05:09.163Z,35.95
2023-02-23T12:07:46.209Z,36.15
2023-02-23T12:10:20.892Z,34.53
2023-02-23T12:12:57.189Z,35.83
2023-02-23T12:15:50.594Z,35.72
2023-02-23T12:18:38.236Z,36.50
2023-02-23T12:21:26.544Z,35.63
2023-02-23T12:24:05.599Z,35.50
2023-02-23T12:27:43.314Z,36.10
2023-02-23T12:30:19.211Z,34.67
2023-02-23T12:32:53.968Z,34.20
2023-02-23T12:35:30.754Z,32.65
2023-02-23T12:38:04.088Z,34.45
2023-02-23T12:40:36.571Z,35.47
2023-02-23T12:43:12.749Z,33.10
2023-02-23T12:45:47.154Z,34.42
2023-02-23T12:48:26.028Z,34.58
2023-02-23T12:50:56.941Z,32.25
2023-02-23T12:53:30.356Z,34.15
2023-02-23T12:56:16.735Z,34.03
2023-02-23T12:58:52.072Z,32.25
2023-02-23T13:01:28.913Z,34.67
2023-02-23T13:04:22.366Z,35.78
2023-02-23T13:07:04.348Z,34.78
2023-02-23T13:09:44.810Z,32.80
2023-02-23T13:12:37.946Z,33.83
2023-02-23T13:15:19.789Z,32.88
2023-02-23T13:17:54.416Z,35.30
2023-02-23T13:20:28.685Z,34.10
2023-02-23T13:23:09.501Z,33.00
2023-02-23T13:25:47.598Z,34.85
2023-02-23T13:28:21.876Z,36.00
2023-02-23T13:30:50.397Z,35.40
2023-02-23T13:33:34.940Z,36.22
2023-02-23T13:36:13.009Z,34.50
2023-02-23T13:38:47.932Z,33.55
2023-02-23T13:41:31.604Z,34.70
2023-02-23T13:44:08.335Z,34.75
2023-02-23T13:46:44.932Z,34.75
2023-02-23T13:49:25.838Z,34.60
2023-02-23T13:51:58.990Z,35.17
2023-02-23T13:54:34.693Z,37.33
2023-02-23T13:57:05.846Z,34.80
2023-02-23T13:59:45.382Z,31.27
2023-02-23T14:02:38.392Z,30.80
2023-02-23T14:05:20.622Z,29.92
2023-02-23T14:07:53.134Z,29.17
2023-02-23T14:10:22.998Z,32.95
2023-02-23T14:13:25.254Z,31.95
2023-02-23T14:16:17.070Z,33.92
2023-02-23T14:18:58.305Z,30.80
2023-02-23T14:21:33.818Z,31.80
2023-02-23T14:24:17.545Z,28.27
2023-02-23T14:27:08.332Z,29.20
2023-02-23T14:29:41.651Z,26.58
2023-02-23T14:32:32.596Z,25.10
2023-02-23T14:35:02.560Z,25.17
2023-02-23T14:37:36.247Z,24.80
2023-02-23T14:40:15.842Z,22.35
2023-02-23T14:42:48.882Z,21.33
2023-02-23T14:45:26.960Z,22.13
2023-02-23T14:48:00.735Z,22.60
2023-02-23T14:50:31.434Z,22.48
2023-02-23T14:53:01.394Z,21.75
2023-02-23T14:55:32.645Z,22.23
2023-02-23T14:58:03.214Z,20.90
2023-02-23T15:00:34.098Z,20.70
2023-02-23T15:03:06.009Z,21.13
2023-02-23T15:05:37.877Z,20.10
2023-02-23T15:08:10.634Z,19.58
2023-02-23T15:10:41.854Z,19.48
2023-02-23T15:13:13.569Z,19.63
2023-02-23T15:15:46.018Z,19.52
2023-02-23T15:18:23.894Z,18.35
2023-02-23T15:20:52.615Z,18.02
2023-02-23T15:23:22.342Z,16.02
2023-02-23T15:25:51.358Z,18.40
2023-02-23T15:28:26.763Z,17.55
2023-02-23T15:30:56.460Z,18.23
2023-02-23T15:33:28.804Z,16.92
2023-02-23T15:36:10.673Z,17.60
2023-02-23T15:38:44.811Z,18.58
2023-02-23T15:41:23.145Z,18.55
2023-02-23T15:43:51.865Z,18.00
2023-02-23T15:46:24.910Z,16.90
2023-02-23T15:48:56.707Z,17.35
2023-02-23T15:51:33.478Z,17.73
2023-02-23T15:54:04.099Z,18.60
2023-02-23T15:56:35.754Z,17.25
2023-02-23T15:59:11.168Z,18.58
2023-02-23T16:01:45.129Z,19.17
2023-02-23T16:04:20.031Z,18.48
2023-02-23T16:06:53.391Z,19.35
2023-02-23T16:09:30.229Z,19.20
2023-02-23T16:12:03.719Z,19.48
2023-02-23T16:14:42.114Z,19.50
2023-02-23T16:17:27.006Z,19.48
2023-02-23T16:20:09.438Z,19.35
2023-02-23T16:22:41.690Z,19.05
2023-02-23T16:25:14.926Z,19.17
2023-02-23T16:27:44.379Z,20.23
2023-02-23T16:30:24.724Z,20.83
2023-02-23T16:33:08.692Z,20.15
2023-02-23T16:35:46.473Z,19.48
2023-02-23T16:38:16.600Z,20.08
2023-02-23T16:40:45.338Z,19.40
2023-02-23T16:43:13.749Z,19.33
2023-02-23T16:45:43.710Z,19.50
2023-02-23T16:48:17.490Z,19.30
2023-02-23T16:50:48.341Z,19.05
2023-02-23T16:53:17.052Z,17.45
2023-02-23T16:55:52.059Z,18.92
2023-02-23T16:58:26.149Z,19.08
2023-02-23T17:00:55.361Z,19.27
2023-02-23T17:03:25.609Z,20.10
2023-02-23T17:05:55.526Z,19.55
2023-02-23T17:08:24.508Z,20.70
2023-02-23T17:10:55.916Z,19.65
2023-02-23T17:14:02.289Z,19.77
2023-02-23T17:16:30.805Z,18.63
2023-02-23T17:19:01.217Z,21.20
2023-02-23T17:21:31.754Z,19.17
2023-02-23T17:24:03.682Z,19.70
2023-02-23T17:26:31.983Z,20.05
2023-02-23T17:29:00.268Z,20.67
2023-02-23T17:31:29.071Z,20.83
2023-02-23T17:33:57.721Z,21.30
2023-02-23T17:36:27.585Z,20.05
2023-02-23T17:38:58.849Z,20.55
2023-02-23T17:41:27.733Z,19.08
2023-02-23T17:43:56.279Z,19.15
2023-02-23T17:46:25.049Z,19.08
2023-02-23T17:48:55.148Z,18.45
2023-02-23T17:51:24.749Z,19.80
2023-02-23T17:53:53.452Z,18.30
2023-02-23T17:56:24.174Z,19.48
2023-02-23T17:58:52.690Z,18.70
2023-02-23T18:01:21.285Z,18.88
2023-02-23T18:03:51.000Z,18.83
2023-02-23T18:06:19.799Z,16.67
2023-02-23T18:08:48.140Z,16.83
2023-02-23T18:11:18.617Z,16.65
2023-02-23T18:13:51.300Z,15.48
2023-02-23T18:16:20.651Z,16.05
2023-02-23T18:18:50.190Z,14.88
2023-02-23T18:21:20.883Z,14.02
2023-02-23T18:23:51.128Z,14.18
2023-02-23T18:26:25.333Z,13.80
2023-02-23T18:28:57.086Z,13.40
2023-02-23T18:31:28.139Z,13.85
2023-02-23T18:33:56.720Z,12.73
2023-02-23T18:36:27.966Z,13.73
2023-02-23T18:38:57.505Z,12.57
2023-02-23T18:41:31.224Z,12.70
2023-02-23T18:44:01.467Z,12.35
2023-02-23T18:46:30.701Z,11.73
2023-02-23T18:49:00.144Z,10.93
2023-02-23T18:51:28.788Z,10.15
2023-02-23T18:53:57.543Z,10.13
2023-02-23T18:56:28.849Z,10.73
2023-02-23T18:59:00.012Z,9.75
2023-02-23T19:01:33.300Z,10.07
2023-02-23T19:04:03.589Z,10.07
2023-02-23T19:06:32.979Z,10.43
2023-02-23T19:09:04.237Z,9.73
2023-02-23T19:11:38.257Z,10.70
2023-02-23T19:14:08.523Z,10.25
2023-02-23T19:16:38.950Z,9.32
2023-02-23T19:19:08.470Z,9.73
2023-02-23T19:21:37.313Z,9.50
2023-02-23T19:24:07.208Z,9.90
2023-02-23T19:26:37.457Z,9.65
2023-02-23T19:29:06.162Z,8.90
2023-02-23T19:31:35.177Z,9.32
2023-02-23T19:34:05.201Z,8.75
2023-02-23T19:36:35.492Z,8.65
2023-02-23T19:39:15.575Z,7.75
2023-02-23T19:41:47.141Z,8.15
2023-02-23T19:44:15.587Z,8.60
2023-02-23T19:46:44.156Z,8.85
2023-02-23T19:49:14.126Z,9.35
2023-02-23T19:51:42.399Z,8.75
2023-02-23T19:54:12.417Z,9.43
2023-02-23T19:56:40.672Z,9.20
2023-02-23T19:59:09.363Z,8.32
2023-02-23T20:01:37.915Z,7.43
2023-02-23T20:04:08.482Z,8.60
2023-02-23T20:06:44.671Z,7.43
2023-02-23T20:09:13.405Z,7.95
2023-02-23T20:11:42.653Z,8.38
2023-02-23T20:14:12.506Z,8.50
2023-02-23T20:16:40.917Z,8.20
2023-02-23T20:19:09.286Z,8.50
2023-02-23T20:21:42.239Z,8.70
2023-02-23T20:24:12.728Z,9.15
2023-02-23T20:26:41.125Z,9.00
2023-02-23T20:29:11.860Z,9.80
2023-02-23T20:31:42.912Z,9.05
2023-02-23T20:34:12.112Z,9.95
2023-02-23T20:36:42.062Z,8.65
2023-02-23T20:39:11.242Z,9.15
2023-02-23T20:41:43.455Z,9.38
2023-02-23T20:44:12.574Z,8.93
2023-02-23T20:46:41.410Z,9.02
2023-02-23T20:49:11.519Z,8.30
2023-02-23T20:51:42.518Z,8.95
2023-02-23T20:54:11.668Z,9.13
2023-02-23T20:56:41.617Z,8.80
2023-02-23T20:59:15.657Z,8.77
2023-02-23T21:01:45.332Z,8.95
2023-02-23T21:04:14.065Z,8.93
2023-02-23T21:06:43.625Z,9.15
2023-02-23T21:09:18.150Z,9.43
2023-02-23T21:11:48.290Z,9.90
2023-02-23T21:14:20.613Z,9.32
2023-02-23T21:16:49.065Z,10.23
2023-02-23T21:19:22.682Z,9.80
2023-02-23T21:21:57.866Z,9.80
2023-02-23T21:24:27.335Z,10.23
2023-02-23T21:26:55.573Z,9.15
2023-02-23T21:29:24.012Z,11.27
2023-02-23T21:31:52.786Z,10.15
2023-02-23T21:34:21.408Z,10.45
2023-02-23T21:36:51.394Z,10.35
2023-02-23T21:39:21.634Z,10.45
2023-02-23T21:41:49.886Z,10.68
2023-02-23T21:44:18.237Z,10.32
2023-02-23T21:46:46.566Z,11.10
2023-02-23T21:49:14.888Z,10.95
2023-02-23T21:51:43.103Z,11.30
2023-02-23T21:54:12.845Z,12.20
2023-02-23T21:56:41.411Z,11.38
2023-02-23T21:59:10.748Z,10.60
2023-02-23T22:01:40.888Z,11.77
2023-02-23T22:04:13.992Z,11.27
2023-02-23T22:06:44.669Z,11.02
2023-02-23T22:09:15.800Z,12.00
2023-02-23T22:11:47.368Z,11.82
2023-02-23T22:14:18.242Z,12.35
2023-02-23T22:16:47.644Z,13.00
2023-02-23T22:19:16.520Z,11.75
2023-02-23T22:21:47.973Z,13.65
2023-02-23T22:24:17.937Z,13.55
2023-02-23T22:26:50.606Z,13.77
2023-02-23T22:29:19.080Z,14.50
2023-02-23T22:31:47.454Z,13.23
2023-02-23T22:34:15.845Z,13.73
2023-02-23T22:36:44.896Z,14.60
2023-02-23T22:39:16.301Z,14.38
2023-02-23T22:41:47.253Z,14.30
2023-02-23T22:44:17.551Z,14.73
2023-02-23T22:46:48.108Z,15.32
2023-02-23T22:49:20.075Z,15.63
2023-02-23T22:51:50.569Z,14.73
2023-02-23T22:54:20.399Z,16.42
2023-02-23T22:56:50.626Z,16.23
2023-02-23T22:59:20.479Z,16.42
2023-02-23T23:01:50.330Z,15.85
2023-02-23T23:04:22.185Z,16.92
2023-02-23T23:06:51.616Z,16.80
2023-02-23T23:09:21.197Z,16.33
2023-02-23T23:11:52.014Z,16.77
2023-02-23T23:14:21.305Z,16.02
2023-02-23T23:16:50.607Z,16.58
2023-02-23T23:19:24.090Z,16.88
2023-02-23T23:21:55.827Z,16.13
2023-02-23T23:24:25.887Z,16.92
2023-02-23T23:26:59.596Z,14.52
2023-02-23T23:29:30.537Z,16.27
2023-02-23T23:31:59.125Z,16.58
2023-02-23T23:34:27.618Z,16.70
2023-02-23T23:36:56.843Z,16.15
2023-02-23T23:39:27.083Z,16.25
2023-02-23T23:41:56.719Z,16.08
2023-02-23T23:44:29.104Z,16.05
2023-02-23T23:46:58.016Z,15.18
2023-02-23T23:49:27.051Z,15.00
2023-02-23T23:51:57.120Z,14.57
2023-02-23T23:54:27.534Z,13.88
2023-02-23T23:56:57.773Z,14.35
2023-02-23T23:59:27.536Z,11.60
